sensor_id;sensor_type;location;lat;lon;timestamp;P1;durP1;ratioP1;P2;durP2;ratioP2
32786;SDS011;19139;49.372;8.580;2023-02-28T00:01:44;4.87;;;1.97;;
32786;SDS011;19139;49.372;8.580;2023-02-28T00:04:15;2.57;;;1.70;;
32786;SDS011;19139;49.372;8.580;2023-02-28T00:06:42;4.77;;;1.53;;
32786;SDS011;19139;49.372;8.580;2023-02-28T00:09:14;2.43;;;1.10;;
32786;SDS011;19139;49.372;8.580;2023-02-28T00:11:45;1.80;;;1.07;;
32786;SDS011;19139;49.372;8.580;2023-02-28T00:14:12;1.90;;;1.20;;
32786;SDS011;19139;49.372;8.580;2023-02-28T00:16:43;4.00;;;1.33;;
32786;SDS011;19139;49.372;8.580;2023-02-28T00:19:15;4.33;;;1.50;;
32786;SDS011;19139;49.372;8.580;2023-02-28T00:21:41;2.27;;;1.50;;
32786;SDS011;19139;49.372;8.580;2023-02-28T00:24:13;1.80;;;1.30;;
32786;SDS011;19139;49.372;8.580;2023-02-28T00:26:45;2.70;;;1.20;;
32786;SDS011;19139;49.372;8.580;2023-02-28T00:29:12;1.63;;;1.07;;
32786;SDS011;19139;49.372;8.580;2023-02-28T00:31:43;2.23;;;1.07;;
32786;SDS011;19139;49.372;8.580;2023-02-28T00:34:15;4.00;;;1.60;;
32786;SDS011;19139;49.372;8.580;2023-02-28T00:36:42;2.23;;;1.13;;
32786;SDS011;19139;49.372;8.580;2023-02-28T00:39:11;2.20;;;1.10;;
32786;SDS011;19139;49.372;8.580;2023-02-28T00:41:42;2.43;;;1.40;;
32786;SDS011;19139;49.372;8.580;2023-02-28T00:44:14;2.03;;;1.13;;
32786;SDS011;19139;49.372;8.580;2023-02-28T00:46:45;3.10;;;1.50;;
32786;SDS011;19139;49.372;8.580;2023-02-28T00:49:12;2.47;;;1.30;;
32786;SDS011;19139;49.372;8.580;2023-02-28T00:51:44;3.40;;;1.27;;
32786;SDS011;19139;49.372;8.580;2023-02-28T00:54:10;3.00;;;1.70;;
32786;SDS011;19139;49.372;8.580;2023-02-28T00:56:42;3.17;;;1.17;;
32786;SDS011;19139;49.372;8.580;2023-02-28T00:59:14;2.43;;;1.17;;
32786;SDS011;19139;49.372;8.580;2023-02-28T01:01:42;3.13;;;1.30;;
32786;SDS011;19139;49.372;8.580;2023-02-28T01:04:15;2.83;;;1.53;;
32786;SDS011;19139;49.372;8.580;2023-02-28T01:06:42;1.57;;;1.13;;
32786;SDS011;19139;49.372;8.580;2023-02-28T01:09:09;2.13;;;1.17;;
32786;SDS011;19139;49.372;8.580;2023-02-28T01:11:41;2.57;;;1.20;;
32786;SDS011;19139;49.372;8.580;2023-02-28T01:14:15;2.27;;;1.27;;
32786;SDS011;19139;49.372;8.580;2023-02-28T01:16:47;1.73;;;1.00;;
32786;SDS011;19139;49.372;8.580;2023-02-28T01:19:19;1.63;;;1.13;;
32786;SDS011;19139;49.372;8.580;2023-02-28T01:21:51;3.33;;;1.50;;
32786;SDS011;19139;49.372;8.580;2023-02-28T01:24:22;2.00;;;1.23;;
32786;SDS011;19139;49.372;8.580;2023-02-28T01:26:54;3.33;;;1.20;;
32786;SDS011;19139;49.372;8.580;2023-02-28T01:29:20;1.40;;;1.10;;
32786;SDS011;19139;49.372;8.580;2023-02-28T01:31:52;2.00;;;1.30;;
32786;SDS011;19139;49.372;8.580;2023-02-28T01:34:23;2.90;;;1.23;;
32786;SDS011;19139;49.372;8.580;2023-02-28T01:36:55;2.17;;;1.23;;
32786;SDS011;19139;49.372;8.580;2023-02-28T01:39:29;2.00;;;1.30;;
32786;SDS011;19139;49.372;8.580;2023-02-28T01:41:56;2.37;;;1.10;;
32786;SDS011;19139;49.372;8.580;2023-02-28T01:47:24;2.50;;;1.27;;
32786;SDS011;19139;49.372;8.580;2023-02-28T01:49:54;2.07;;;1.17;;
32786;SDS011;19139;49.372;8.580;2023-02-28T01:52:26;2.83;;;1.17;;
32786;SDS011;19139;49.372;8.580;2023-02-28T01:54:54;2.77;;;1.30;;
32786;SDS011;19139;49.372;8.580;2023-02-28T01:57:24;1.87;;;0.97;;
32786;SDS011;19139;49.372;8.580;2023-02-28T02:00:00;1.97;;;1.07;;
32786;SDS011;19139;49.372;8.580;2023-02-28T02:02:36;3.17;;;1.33;;
32786;SDS011;19139;49.372;8.580;2023-02-28T02:05:05;4.87;;;1.27;;
32786;SDS011;19139;49.372;8.580;2023-02-28T02:07:36;2.03;;;1.30;;
32786;SDS011;19139;49.372;8.580;2023-02-28T02:13:05;1.80;;;1.10;;
32786;SDS011;19139;49.372;8.580;2023-02-28T02:19:30;1.97;;;1.30;;
32786;SDS011;19139;49.372;8.580;2023-02-28T02:36:43;1.80;;;1.17;;
32786;SDS011;19139;49.372;8.580;2023-02-28T02:42:27;1.43;;;1.17;;
32786;SDS011;19139;49.372;8.580;2023-02-28T02:45:08;1.80;;;1.13;;
32786;SDS011;19139;49.372;8.580;2023-02-28T02:47:37;1.40;;;0.90;;
32786;SDS011;19139;49.372;8.580;2023-02-28T02:50:07;3.10;;;1.53;;
32786;SDS011;19139;49.372;8.580;2023-02-28T02:52:45;1.77;;;1.20;;
32786;SDS011;19139;49.372;8.580;2023-02-28T02:55:18;2.23;;;1.07;;
32786;SDS011;19139;49.372;8.580;2023-02-28T02:57:49;2.13;;;1.20;;
32786;SDS011;19139;49.372;8.580;2023-02-28T03:00:26;1.30;;;1.00;;
32786;SDS011;19139;49.372;8.580;2023-02-28T03:03:05;3.73;;;1.10;;
32786;SDS011;19139;49.372;8.580;2023-02-28T03:05:35;1.90;;;1.00;;
32786;SDS011;19139;49.372;8.580;2023-02-28T03:08:13;1.33;;;1.07;;
32786;SDS011;19139;49.372;8.580;2023-02-28T03:10:46;1.30;;;1.00;;
32786;SDS011;19139;49.372;8.580;2023-02-28T03:19:02;1.63;;;1.00;;
32786;SDS011;19139;49.372;8.580;2023-02-28T03:24:37;1.67;;;0.97;;
32786;SDS011;19139;49.372;8.580;2023-02-28T03:27:39;1.20;;;0.80;;
32786;SDS011;19139;49.372;8.580;2023-02-28T03:35:28;0.90;;;0.70;;
32786;SDS011;19139;49.372;8.580;2023-02-28T03:38:09;1.53;;;1.10;;
32786;SDS011;19139;49.372;8.580;2023-02-28T03:40:43;1.50;;;0.83;;
32786;SDS011;19139;49.372;8.580;2023-02-28T03:43:17;1.57;;;1.10;;
32786;SDS011;19139;49.372;8.580;2023-02-28T03:45:47;2.27;;;0.90;;
32786;SDS011;19139;49.372;8.580;2023-02-28T03:48:19;1.63;;;1.03;;
32786;SDS011;19139;49.372;8.580;2023-02-28T03:50:48;1.57;;;0.87;;
32786;SDS011;19139;49.372;8.580;2023-02-28T03:53:30;1.47;;;1.03;;
32786;SDS011;19139;49.372;8.580;2023-02-28T03:58:55;2.80;;;0.87;;
32786;SDS011;19139;49.372;8.580;2023-02-28T04:01:35;1.33;;;0.80;;
32786;SDS011;19139;49.372;8.580;2023-02-28T04:04:08;1.77;;;0.90;;
32786;SDS011;19139;49.372;8.580;2023-02-28T04:06:35;1.17;;;0.70;;
32786;SDS011;19139;49.372;8.580;2023-02-28T04:09:02;1.83;;;0.90;;
32786;SDS011;19139;49.372;8.580;2023-02-28T04:11:39;4.43;;;0.97;;
32786;SDS011;19139;49.372;8.580;2023-02-28T04:14:08;2.07;;;0.80;;
32786;SDS011;19139;49.372;8.580;2023-02-28T04:16:37;1.30;;;0.93;;
32786;SDS011;19139;49.372;8.580;2023-02-28T04:19:06;1.70;;;1.03;;
32786;SDS011;19139;49.372;8.580;2023-02-28T04:21:38;1.90;;;1.00;;
32786;SDS011;19139;49.372;8.580;2023-02-28T04:24:10;1.37;;;0.87;;
32786;SDS011;19139;49.372;8.580;2023-02-28T04:26:46;1.00;;;0.67;;
32786;SDS011;19139;49.372;8.580;2023-02-28T04:29:29;1.53;;;0.83;;
32786;SDS011;19139;49.372;8.580;2023-02-28T04:32:03;1.20;;;0.90;;
32786;SDS011;19139;49.372;8.580;2023-02-28T04:34:35;1.00;;;0.70;;
32786;SDS011;19139;49.372;8.580;2023-02-28T04:37:06;2.50;;;1.00;;
32786;SDS011;19139;49.372;8.580;2023-02-28T04:39:39;0.70;;;0.50;;
32786;SDS011;19139;49.372;8.580;2023-02-28T04:42:07;0.70;;;0.67;;
32786;SDS011;19139;49.372;8.580;2023-02-28T04:44:34;1.93;;;1.20;;
32786;SDS011;19139;49.372;8.580;2023-02-28T04:47:05;3.03;;;1.30;;
32786;SDS011;19139;49.372;8.580;2023-02-28T04:49:37;1.20;;;0.63;;
32786;SDS011;19139;49.372;8.580;2023-02-28T04:52:04;1.30;;;0.90;;
32786;SDS011;19139;49.372;8.580;2023-02-28T04:54:35;1.30;;;0.77;;
32786;SDS011;19139;49.372;8.580;2023-02-28T04:57:04;1.47;;;1.00;;
32786;SDS011;19139;49.372;8.580;2023-02-28T04:59:36;2.00;;;1.00;;
32786;SDS011;19139;49.372;8.580;2023-02-28T05:02:03;2.03;;;0.83;;
32786;SDS011;19139;49.372;8.580;2023-02-28T05:04:33;1.83;;;1.30;;
32786;SDS011;19139;49.372;8.580;2023-02-28T05:07:05;1.00;;;0.70;;
32786;SDS011;19139;49.372;8.580;2023-02-28T05:09:36;1.47;;;0.80;;
32786;SDS011;19139;49.372;8.580;2023-02-28T05:12:03;3.10;;;0.80;;
32786;SDS011;19139;49.372;8.580;2023-02-28T05:14:34;1.13;;;0.80;;
32786;SDS011;19139;49.372;8.580;2023-02-28T05:17:02;2.53;;;1.00;;
32786;SDS011;19139;49.372;8.580;2023-02-28T05:19:34;1.57;;;0.73;;
32786;SDS011;19139;49.372;8.580;2023-02-28T05:22:11;1.20;;;1.00;;
32786;SDS011;19139;49.372;8.580;2023-02-28T05:24:46;1.20;;;1.07;;
32786;SDS011;19139;49.372;8.580;2023-02-28T05:27:12;1.57;;;1.10;;
32786;SDS011;19139;49.372;8.580;2023-02-28T05:29:44;1.70;;;0.90;;
32786;SDS011;19139;49.372;8.580;2023-02-28T05:32:15;1.10;;;0.80;;
32786;SDS011;19139;49.372;8.580;2023-02-28T05:34:42;1.50;;;0.93;;
32786;SDS011;19139;49.372;8.580;2023-02-28T05:37:11;1.13;;;0.80;;
32786;SDS011;19139;49.372;8.580;2023-02-28T05:39:39;1.13;;;0.80;;
32786;SDS011;19139;49.372;8.580;2023-02-28T05:42:05;1.83;;;0.97;;
32786;SDS011;19139;49.372;8.580;2023-02-28T05:44:32;0.90;;;0.57;;
32786;SDS011;19139;49.372;8.580;2023-02-28T05:47:04;1.20;;;0.80;;
32786;SDS011;19139;49.372;8.580;2023-02-28T05:49:35;1.70;;;0.83;;
32786;SDS011;19139;49.372;8.580;2023-02-28T05:52:02;1.10;;;0.70;;
32786;SDS011;19139;49.372;8.580;2023-02-28T05:54:29;1.17;;;0.70;;
32786;SDS011;19139;49.372;8.580;2023-02-28T05:56:55;1.33;;;0.80;;
32786;SDS011;19139;49.372;8.580;2023-02-28T05:59:22;1.57;;;1.00;;
32786;SDS011;19139;49.372;8.580;2023-02-28T06:01:49;1.33;;;0.93;;
32786;SDS011;19139;49.372;8.580;2023-02-28T06:04:16;1.23;;;0.73;;
32786;SDS011;19139;49.372;8.580;2023-02-28T06:06:56;1.20;;;1.10;;
32786;SDS011;19139;49.372;8.580;2023-02-28T06:09:23;1.40;;;0.90;;
32786;SDS011;19139;49.372;8.580;2023-02-28T06:11:57;2.20;;;0.87;;
32786;SDS011;19139;49.372;8.580;2023-02-28T06:14:24;1.60;;;0.80;;
32786;SDS011;19139;49.372;8.580;2023-02-28T06:16:56;1.47;;;0.87;;
32786;SDS011;19139;49.372;8.580;2023-02-28T06:19:24;1.10;;;0.90;;
32786;SDS011;19139;49.372;8.580;2023-02-28T06:21:56;1.23;;;0.77;;
32786;SDS011;19139;49.372;8.580;2023-02-28T06:24:23;2.70;;;0.83;;
32786;SDS011;19139;49.372;8.580;2023-02-28T06:26:56;1.80;;;0.90;;
32786;SDS011;19139;49.372;8.580;2023-02-28T06:29:24;2.07;;;1.00;;
32786;SDS011;19139;49.372;8.580;2023-02-28T06:31:56;2.40;;;1.07;;
32786;SDS011;19139;49.372;8.580;2023-02-28T06:34:23;4.17;;;1.00;;
32786;SDS011;19139;49.372;8.580;2023-02-28T06:36:55;2.33;;;0.87;;
32786;SDS011;19139;49.372;8.580;2023-02-28T06:39:26;1.90;;;1.17;;
32786;SDS011;19139;49.372;8.580;2023-02-28T06:41:53;1.47;;;0.80;;
32786;SDS011;19139;49.372;8.580;2023-02-28T06:44:21;1.63;;;0.90;;
32786;SDS011;19139;49.372;8.580;2023-02-28T06:46:49;1.33;;;0.93;;
32786;SDS011;19139;49.372;8.580;2023-02-28T06:49:15;1.63;;;1.10;;
32786;SDS011;19139;49.372;8.580;2023-02-28T06:51:42;1.43;;;1.10;;
32786;SDS011;19139;49.372;8.580;2023-02-28T06:54:13;1.40;;;0.80;;
32786;SDS011;19139;49.372;8.580;2023-02-28T06:56:40;1.90;;;0.77;;
32786;SDS011;19139;49.372;8.580;2023-02-28T06:59:06;1.10;;;0.90;;
32786;SDS011;19139;49.372;8.580;2023-02-28T07:01:33;1.30;;;0.80;;
32786;SDS011;19139;49.372;8.580;2023-02-28T07:04:00;0.87;;;0.80;;
32786;SDS011;19139;49.372;8.580;2023-02-28T07:06:27;1.23;;;0.80;;
32786;SDS011;19139;49.372;8.580;2023-02-28T07:08:54;2.70;;;1.13;;
32786;SDS011;19139;49.372;8.580;2023-02-28T07:11:26;2.00;;;1.10;;
32786;SDS011;19139;49.372;8.580;2023-02-28T07:13:54;1.57;;;0.60;;
32786;SDS011;19139;49.372;8.580;2023-02-28T07:16:26;1.33;;;1.10;;
32786;SDS011;19139;49.372;8.580;2023-02-28T07:18:53;4.27;;;1.17;;
32786;SDS011;19139;49.372;8.580;2023-02-28T07:21:26;2.10;;;1.30;;
32786;SDS011;19139;49.372;8.580;2023-02-28T07:23:53;2.00;;;1.23;;
32786;SDS011;19139;49.372;8.580;2023-02-28T07:26:20;3.70;;;1.17;;
32786;SDS011;19139;49.372;8.580;2023-02-28T07:28:47;1.70;;;1.20;;
32786;SDS011;19139;49.372;8.580;2023-02-28T07:31:14;3.50;;;1.60;;
32786;SDS011;19139;49.372;8.580;2023-02-28T07:33:42;3.50;;;0.97;;
32786;SDS011;19139;49.372;8.580;2023-02-28T07:36:10;2.73;;;1.50;;
32786;SDS011;19139;49.372;8.580;2023-02-28T07:38:43;2.47;;;1.17;;
32786;SDS011;19139;49.372;8.580;2023-02-28T07:41:14;3.00;;;1.33;;
32786;SDS011;19139;49.372;8.580;2023-02-28T07:43:42;1.67;;;1.17;;
32786;SDS011;19139;49.372;8.580;2023-02-28T07:46:16;4.07;;;1.40;;
32786;SDS011;19139;49.372;8.580;2023-02-28T07:48:43;2.73;;;1.00;;
32786;SDS011;19139;49.372;8.580;2023-02-28T07:51:15;4.50;;;1.30;;
32786;SDS011;19139;49.372;8.580;2023-02-28T07:53:42;1.40;;;1.00;;
32786;SDS011;19139;49.372;8.580;2023-02-28T07:56:09;2.63;;;1.40;;
32786;SDS011;19139;49.372;8.580;2023-02-28T07:58:36;3.17;;;2.00;;
32786;SDS011;19139;49.372;8.580;2023-02-28T08:01:09;2.67;;;1.40;;
32786;SDS011;19139;49.372;8.580;2023-02-28T08:03:37;3.73;;;1.20;;
32786;SDS011;19139;49.372;8.580;2023-02-28T08:06:05;3.40;;;1.23;;
32786;SDS011;19139;49.372;8.580;2023-02-28T08:08:33;2.90;;;1.13;;
32786;SDS011;19139;49.372;8.580;2023-02-28T08:11:04;2.77;;;1.07;;
32786;SDS011;19139;49.372;8.580;2023-02-28T08:13:36;2.20;;;1.30;;
32786;SDS011;19139;49.372;8.580;2023-02-28T08:16:03;2.53;;;1.43;;
32786;SDS011;19139;49.372;8.580;2023-02-28T08:18:29;3.10;;;1.17;;
32786;SDS011;19139;49.372;8.580;2023-02-28T08:20:56;3.23;;;1.80;;
32786;SDS011;19139;49.372;8.580;2023-02-28T08:23:23;1.83;;;1.10;;
32786;SDS011;19139;49.372;8.580;2023-02-28T08:25:55;2.93;;;1.60;;
32786;SDS011;19139;49.372;8.580;2023-02-28T08:28:22;5.37;;;2.40;;
32786;SDS011;19139;49.372;8.580;2023-02-28T08:30:52;4.57;;;1.53;;
32786;SDS011;19139;49.372;8.580;2023-02-28T08:33:19;6.07;;;1.57;;
32786;SDS011;19139;49.372;8.580;2023-02-28T08:35:46;3.77;;;1.63;;
32786;SDS011;19139;49.372;8.580;2023-02-28T08:38:13;3.70;;;1.53;;
32786;SDS011;19139;49.372;8.580;2023-02-28T08:40:44;3.20;;;1.67;;
32786;SDS011;19139;49.372;8.580;2023-02-28T08:43:15;4.37;;;1.83;;
32786;SDS011;19139;49.372;8.580;2023-02-28T08:45:42;3.93;;;1.40;;
32786;SDS011;19139;49.372;8.580;2023-02-28T08:48:14;2.83;;;1.20;;
32786;SDS011;19139;49.372;8.580;2023-02-28T08:50:54;3.50;;;1.50;;
32786;SDS011;19139;49.372;8.580;2023-02-28T08:53:33;2.57;;;1.23;;
32786;SDS011;19139;49.372;8.580;2023-02-28T08:56:00;3.10;;;1.50;;
32786;SDS011;19139;49.372;8.580;2023-02-28T08:58:37;3.50;;;1.20;;
32786;SDS011;19139;49.372;8.580;2023-02-28T09:01:07;4.00;;;1.77;;
32786;SDS011;19139;49.372;8.580;2023-02-28T09:03:45;3.20;;;1.30;;
32786;SDS011;19139;49.372;8.580;2023-02-28T09:06:14;3.23;;;1.47;;
32786;SDS011;19139;49.372;8.580;2023-02-28T09:08:46;3.20;;;1.53;;
32786;SDS011;19139;49.372;8.580;2023-02-28T09:11:13;2.03;;;1.10;;
32786;SDS011;19139;49.372;8.580;2023-02-28T09:13:40;3.80;;;1.70;;
32786;SDS011;19139;49.372;8.580;2023-02-28T09:16:07;2.70;;;1.80;;
32786;SDS011;19139;49.372;8.580;2023-02-28T09:18:37;2.47;;;1.40;;
32786;SDS011;19139;49.372;8.580;2023-02-28T09:21:05;2.20;;;1.50;;
32786;SDS011;19139;49.372;8.580;2023-02-28T09:23:34;3.37;;;1.70;;
32786;SDS011;19139;49.372;8.580;2023-02-28T09:26:04;3.83;;;1.70;;
32786;SDS011;19139;49.372;8.580;2023-02-28T09:28:36;3.17;;;1.30;;
32786;SDS011;19139;49.372;8.580;2023-02-28T09:31:02;2.10;;;1.23;;
32786;SDS011;19139;49.372;8.580;2023-02-28T09:33:35;2.70;;;1.50;;
32786;SDS011;19139;49.372;8.580;2023-02-28T09:36:07;2.23;;;1.43;;
32786;SDS011;19139;49.372;8.580;2023-02-28T09:38:34;2.80;;;1.50;;
32786;SDS011;19139;49.372;8.580;2023-02-28T09:41:02;3.40;;;1.30;;
32786;SDS011;19139;49.372;8.580;2023-02-28T09:43:43;3.40;;;1.50;;
32786;SDS011;19139;49.372;8.580;2023-02-28T09:46:32;3.43;;;1.37;;
32786;SDS011;19139;49.372;8.580;2023-02-28T09:49:00;6.13;;;1.90;;
32786;SDS011;19139;49.372;8.580;2023-02-28T09:54:23;4.13;;;1.67;;
32786;SDS011;19139;49.372;8.580;2023-02-28T09:56:57;2.77;;;1.70;;
32786;SDS011;19139;49.372;8.580;2023-02-28T10:05:11;6.70;;;1.90;;
32786;SDS011;19139;49.372;8.580;2023-02-28T10:07:58;3.40;;;1.87;;
32786;SDS011;19139;49.372;8.580;2023-02-28T10:10:41;3.03;;;1.70;;
32786;SDS011;19139;49.372;8.580;2023-02-28T10:13:41;3.23;;;1.60;;
32786;SDS011;19139;49.372;8.580;2023-02-28T10:16:41;3.20;;;1.83;;
32786;SDS011;19139;49.372;8.580;2023-02-28T10:19:55;2.77;;;1.70;;
32786;SDS011;19139;49.372;8.580;2023-02-28T10:22:15;2.20;;;1.10;;
32786;SDS011;19139;49.372;8.580;2023-02-28T10:24:52;4.10;;;1.80;;
32786;SDS011;19139;49.372;8.580;2023-02-28T10:27:24;2.60;;;1.30;;
32786;SDS011;19139;49.372;8.580;2023-02-28T10:29:54;3.00;;;1.50;;
32786;SDS011;19139;49.372;8.580;2023-02-28T10:32:24;3.43;;;1.30;;
32786;SDS011;19139;49.372;8.580;2023-02-28T10:35:06;2.23;;;1.40;;
32786;SDS011;19139;49.372;8.580;2023-02-28T10:37:47;3.13;;;1.60;;
32786;SDS011;19139;49.372;8.580;2023-02-28T10:43:06;4.87;;;1.50;;
32786;SDS011;19139;49.372;8.580;2023-02-28T10:48:40;2.23;;;1.20;;
32786;SDS011;19139;49.372;8.580;2023-02-28T10:51:16;4.87;;;1.63;;
32786;SDS011;19139;49.372;8.580;2023-02-28T10:53:51;3.23;;;1.43;;
32786;SDS011;19139;49.372;8.580;2023-02-28T10:56:28;5.57;;;1.93;;
32786;SDS011;19139;49.372;8.580;2023-02-28T11:01:54;2.93;;;1.50;;
32786;SDS011;19139;49.372;8.580;2023-02-28T11:07:19;4.17;;;2.00;;
32786;SDS011;19139;49.372;8.580;2023-02-28T11:09:53;4.13;;;1.73;;
32786;SDS011;19139;49.372;8.580;2023-02-28T11:12:36;4.03;;;1.60;;
32786;SDS011;19139;49.372;8.580;2023-02-28T11:15:21;2.57;;;1.37;;
32786;SDS011;19139;49.372;8.580;2023-02-28T11:17:57;2.83;;;1.20;;
32786;SDS011;19139;49.372;8.580;2023-02-28T11:20:47;2.53;;;1.60;;
32786;SDS011;19139;49.372;8.580;2023-02-28T11:23:17;3.20;;;1.43;;
32786;SDS011;19139;49.372;8.580;2023-02-28T11:25:50;4.07;;;1.70;;
32786;SDS011;19139;49.372;8.580;2023-02-28T11:28:30;2.20;;;1.60;;
32786;SDS011;19139;49.372;8.580;2023-02-28T11:33:50;1.97;;;1.40;;
32786;SDS011;19139;49.372;8.580;2023-02-28T11:36:27;3.63;;;1.60;;
32786;SDS011;19139;49.372;8.580;2023-02-28T11:39:03;5.43;;;2.17;;
32786;SDS011;19139;49.372;8.580;2023-02-28T11:47:35;3.80;;;1.53;;
32786;SDS011;19139;49.372;8.580;2023-02-28T11:50:16;2.43;;;1.77;;
32786;SDS011;19139;49.372;8.580;2023-02-28T11:55:47;2.27;;;1.50;;
32786;SDS011;19139;49.372;8.580;2023-02-28T12:03:59;4.10;;;1.73;;
32786;SDS011;19139;49.372;8.580;2023-02-28T12:06:56;1.77;;;1.50;;
32786;SDS011;19139;49.372;8.580;2023-02-28T12:09:32;3.10;;;1.70;;
32786;SDS011;19139;49.372;8.580;2023-02-28T12:12:21;3.80;;;1.50;;
32786;SDS011;19139;49.372;8.580;2023-02-28T12:15:02;4.33;;;1.90;;
32786;SDS011;19139;49.372;8.580;2023-02-28T12:20:59;4.10;;;1.70;;
32786;SDS011;19139;49.372;8.580;2023-02-28T12:26:40;3.27;;;1.60;;
32786;SDS011;19139;49.372;8.580;2023-02-28T12:29:19;2.77;;;1.50;;
32786;SDS011;19139;49.372;8.580;2023-02-28T12:32:16;3.87;;;1.33;;
32786;SDS011;19139;49.372;8.580;2023-02-28T12:34:51;3.10;;;1.70;;
32786;SDS011;19139;49.372;8.580;2023-02-28T12:37:28;2.43;;;1.93;;
32786;SDS011;19139;49.372;8.580;2023-02-28T12:40:19;4.23;;;1.87;;
32786;SDS011;19139;49.372;8.580;2023-02-28T12:42:58;3.00;;;1.63;;
32786;SDS011;19139;49.372;8.580;2023-02-28T12:45:36;3.83;;;2.40;;
32786;SDS011;19139;49.372;8.580;2023-02-28T12:48:06;3.63;;;2.03;;
32786;SDS011;19139;49.372;8.580;2023-02-28T12:50:36;3.63;;;1.63;;
32786;SDS011;19139;49.372;8.580;2023-02-28T12:53:09;4.03;;;1.80;;
32786;SDS011;19139;49.372;8.580;2023-02-28T13:03:41;4.90;;;2.47;;
32786;SDS011;19139;49.372;8.580;2023-02-28T13:09:21;1.83;;;1.50;;
32786;SDS011;19139;49.372;8.580;2023-02-28T13:11:48;4.17;;;2.00;;
32786;SDS011;19139;49.372;8.580;2023-02-28T13:17:02;3.03;;;1.90;;
32786;SDS011;19139;49.372;8.580;2023-02-28T13:19:36;3.63;;;1.80;;
32786;SDS011;19139;49.372;8.580;2023-02-28T13:22:03;2.70;;;2.30;;
32786;SDS011;19139;49.372;8.580;2023-02-28T13:24:43;3.03;;;1.70;;
32786;SDS011;19139;49.372;8.580;2023-02-28T13:29:46;3.47;;;1.73;;
32786;SDS011;19139;49.372;8.580;2023-02-28T13:43:00;3.57;;;1.80;;
32786;SDS011;19139;49.372;8.580;2023-02-28T13:45:32;2.63;;;1.87;;
32786;SDS011;19139;49.372;8.580;2023-02-28T13:48:37;2.27;;;1.73;;
32786;SDS011;19139;49.372;8.580;2023-02-28T13:51:16;3.40;;;2.23;;
32786;SDS011;19139;49.372;8.580;2023-02-28T13:54:39;3.50;;;1.90;;
32786;SDS011;19139;49.372;8.580;2023-02-28T13:57:27;2.90;;;1.50;;
32786;SDS011;19139;49.372;8.580;2023-02-28T14:03:12;3.03;;;1.60;;
32786;SDS011;19139;49.372;8.580;2023-02-28T14:06:14;3.37;;;1.97;;
32786;SDS011;19139;49.372;8.580;2023-02-28T14:11:34;2.97;;;1.80;;
32786;SDS011;19139;49.372;8.580;2023-02-28T14:17:08;4.17;;;2.67;;
32786;SDS011;19139;49.372;8.580;2023-02-28T14:19:45;5.33;;;2.63;;
32786;SDS011;19139;49.372;8.580;2023-02-28T14:31:15;4.13;;;2.30;;
32786;SDS011;19139;49.372;8.580;2023-02-28T14:34:00;3.77;;;2.00;;
32786;SDS011;19139;49.372;8.580;2023-02-28T14:36:55;5.53;;;2.50;;
32786;SDS011;19139;49.372;8.580;2023-02-28T14:39:31;3.40;;;2.57;;
32786;SDS011;19139;49.372;8.580;2023-02-28T14:42:03;5.53;;;2.60;;
32786;SDS011;19139;49.372;8.580;2023-02-28T14:44:55;4.77;;;2.40;;
32786;SDS011;19139;49.372;8.580;2023-02-28T14:47:27;3.73;;;2.40;;
32786;SDS011;19139;49.372;8.580;2023-02-28T14:50:03;3.73;;;2.07;;
32786;SDS011;19139;49.372;8.580;2023-02-28T14:52:35;11.00;;;2.47;;
32786;SDS011;19139;49.372;8.580;2023-02-28T14:55:12;2.60;;;1.93;;
32786;SDS011;19139;49.372;8.580;2023-02-28T15:00:29;4.70;;;2.53;;
32786;SDS011;19139;49.372;8.580;2023-02-28T15:06:14;3.00;;;2.60;;
32786;SDS011;19139;49.372;8.580;2023-02-28T15:08:44;2.73;;;1.83;;
32786;SDS011;19139;49.372;8.580;2023-02-28T15:11:17;4.03;;;2.10;;
32786;SDS011;19139;49.372;8.580;2023-02-28T15:13:52;5.13;;;2.50;;
32786;SDS011;19139;49.372;8.580;2023-02-28T15:19:05;4.37;;;2.33;;
32786;SDS011;19139;49.372;8.580;2023-02-28T15:22:05;4.57;;;2.10;;
32786;SDS011;19139;49.372;8.580;2023-02-28T15:24:43;4.43;;;2.67;;
32786;SDS011;19139;49.372;8.580;2023-02-28T15:27:35;3.37;;;2.10;;
32786;SDS011;19139;49.372;8.580;2023-02-28T15:30:08;4.33;;;2.17;;
32786;SDS011;19139;49.372;8.580;2023-02-28T15:33:04;4.57;;;2.30;;
32786;SDS011;19139;49.372;8.580;2023-02-28T15:35:37;2.77;;;2.30;;
32786;SDS011;19139;49.372;8.580;2023-02-28T15:40:49;3.50;;;1.90;;
32786;SDS011;19139;49.372;8.580;2023-02-28T15:43:30;3.30;;;2.13;;
32786;SDS011;19139;49.372;8.580;2023-02-28T15:46:12;2.67;;;2.20;;
32786;SDS011;19139;49.372;8.580;2023-02-28T15:48:51;2.20;;;2.00;;
32786;SDS011;19139;49.372;8.580;2023-02-28T15:51:22;4.87;;;2.50;;
32786;SDS011;19139;49.372;8.580;2023-02-28T15:53:58;3.13;;;2.20;;
32786;SDS011;19139;49.372;8.580;2023-02-28T15:56:32;3.43;;;2.23;;
32786;SDS011;19139;49.372;8.580;2023-02-28T15:58:59;3.50;;;2.57;;
32786;SDS011;19139;49.372;8.580;2023-02-28T16:01:32;3.27;;;2.20;;
32786;SDS011;19139;49.372;8.580;2023-02-28T16:04:06;4.07;;;2.03;;
32786;SDS011;19139;49.372;8.580;2023-02-28T16:06:40;3.50;;;2.10;;
32786;SDS011;19139;49.372;8.580;2023-02-28T16:09:35;3.47;;;2.10;;
32786;SDS011;19139;49.372;8.580;2023-02-28T16:12:03;2.27;;;1.90;;
32786;SDS011;19139;49.372;8.580;2023-02-28T16:14:36;3.53;;;2.57;;
32786;SDS011;19139;49.372;8.580;2023-02-28T16:17:05;8.63;;;2.13;;
32786;SDS011;19139;49.372;8.580;2023-02-28T16:19:34;2.70;;;1.90;;
32786;SDS011;19139;49.372;8.580;2023-02-28T16:22:07;3.60;;;2.17;;
32786;SDS011;19139;49.372;8.580;2023-02-28T16:24:35;2.30;;;2.07;;
32786;SDS011;19139;49.372;8.580;2023-02-28T16:27:06;3.10;;;2.43;;
32786;SDS011;19139;49.372;8.580;2023-02-28T16:29:46;3.03;;;2.47;;
32786;SDS011;19139;49.372;8.580;2023-02-28T16:32:14;3.30;;;2.40;;
32786;SDS011;19139;49.372;8.580;2023-02-28T16:34:46;2.53;;;2.10;;
32786;SDS011;19139;49.372;8.580;2023-02-28T16:37:17;3.17;;;2.40;;
32786;SDS011;19139;49.372;8.580;2023-02-28T16:39:44;3.57;;;2.27;;
32786;SDS011;19139;49.372;8.580;2023-02-28T16:42:26;2.80;;;2.30;;
32786;SDS011;19139;49.372;8.580;2023-02-28T16:44:55;2.87;;;2.50;;
32786;SDS011;19139;49.372;8.580;2023-02-28T16:47:26;3.63;;;2.30;;
32786;SDS011;19139;49.372;8.580;2023-02-28T16:49:53;2.87;;;2.17;;
32786;SDS011;19139;49.372;8.580;2023-02-28T16:52:19;3.93;;;3.10;;
32786;SDS011;19139;49.372;8.580;2023-02-28T16:54:46;3.63;;;2.37;;
32786;SDS011;19139;49.372;8.580;2023-02-28T16:57:21;3.53;;;2.70;;
32786;SDS011;19139;49.372;8.580;2023-02-28T16:59:49;3.33;;;2.40;;
32786;SDS011;19139;49.372;8.580;2023-02-28T17:02:19;3.60;;;2.47;;
32786;SDS011;19139;49.372;8.580;2023-02-28T17:04:46;2.90;;;2.40;;
32786;SDS011;19139;49.372;8.580;2023-02-28T17:07:14;2.83;;;2.30;;
32786;SDS011;19139;49.372;8.580;2023-02-28T17:09:43;4.37;;;2.60;;
32786;SDS011;19139;49.372;8.580;2023-02-28T17:12:11;2.73;;;2.10;;
32786;SDS011;19139;49.372;8.580;2023-02-28T17:14:43;3.40;;;2.67;;
32786;SDS011;19139;49.372;8.580;2023-02-28T17:17:18;2.83;;;2.30;;
32786;SDS011;19139;49.372;8.580;2023-02-28T17:19:47;2.23;;;2.00;;
32786;SDS011;19139;49.372;8.580;2023-02-28T17:22:14;3.13;;;2.40;;
32786;SDS011;19139;49.372;8.580;2023-02-28T17:24:45;2.83;;;2.17;;
32786;SDS011;19139;49.372;8.580;2023-02-28T17:27:17;4.10;;;2.53;;
32786;SDS011;19139;49.372;8.580;2023-02-28T17:29:43;3.13;;;2.70;;
32786;SDS011;19139;49.372;8.580;2023-02-28T17:32:15;2.87;;;2.20;;
32786;SDS011;19139;49.372;8.580;2023-02-28T17:34:43;3.13;;;2.33;;
32786;SDS011;19139;49.372;8.580;2023-02-28T17:37:11;2.40;;;2.20;;
32786;SDS011;19139;49.372;8.580;2023-02-28T17:39:38;3.47;;;2.43;;
32786;SDS011;19139;49.372;8.580;2023-02-28T17:42:05;7.33;;;2.60;;
32786;SDS011;19139;49.372;8.580;2023-02-28T17:44:31;4.93;;;3.23;;
32786;SDS011;19139;49.372;8.580;2023-02-28T17:46:58;2.63;;;2.43;;